Chesterfield, MA

8:44 AM EDT on October 24, 2014 (GMT -0400)
Harriman And West | Change Station
CLOSE
Current Station
Airport
Location: North Adams,
Elevation: 653 ft
Nearby Weather Stations

Elev 653 ft 42.70 °N, 73.17 °W | Updated 52 minutes ago

Overcast
Overcast
43 °F
Feels Like 36 °F
N
13
Wind Variable Wind from WSW

Today
High -- | Low -- °F
--% Chance of Precip.
Yesterday
High -- | Low -- °F
Precip. -- in
7:14 AM 5:55 PM
New Moon, 0% visible
Pressure 29.82 in
Visibility 10.0 miles
Clouds Scattered Clouds 900 ft
Mostly Cloudy 1500 ft
Overcast 5500 ft
Windchill 36 °F
Dew Point 41 °F
Humidity 93%
Rainfall 0.14 in
Snow Depth Not available.
UV 0 out of 12
Pollen .10 out of 12
PM2.5 Good
Flu Activity No Activity
METAR KAQW 241152Z AUTO 25011KT 10SM SCT009 BKN015 OVC055 06/05 A2980 RMK AO2 RAE00 SLP096 P0000 60009 70058 T00610050 10067 20061 58001

More Conditions Fewer Conditions

Pressure 29.82 in
Visibility 10.0 miles
Clouds Scattered Clouds 900 ft
Mostly Cloudy 1500 ft
Overcast 5500 ft
Windchill 36 °F
Dew Point 41 °F
Humidity 93%
Rainfall 0.14 in
Snow Depth Not available.
UV 0 out of 12
Pollen .10 out of 12
PM2.5 Good
Flu Activity No Activity
METAR KAQW 241152Z AUTO 25011KT 10SM SCT009 BKN015 OVC055 06/05 A2980 RMK AO2 RAE00 SLP096 P0000 60009 70058 T00610050 10067 20061 58001

More Conditions Fewer Conditions

10-Day Weather Forecast

Almanac

Astronomy

Oct. 24, 2014 Rise Set
Actual Time 7:14 AM EDT 5:55 PM EDT
Civil Twilight 6:46 AM EDT 6:24 PM EDT
Nautical Twilight 6:13 AM EDT 6:57 PM EDT
Astronomical Twilight 5:40 AM EDT 7:29 PM EDT
Moon 7:51 AM EDT 6:32 PM EDT
Length of Visible Light 11h 38m
Length of Day
10h 40m
Tomorrow will be 2m 40s shorter.
New Moon, 0% of the Moon is Illuminated
Today
New Moon
Oct 30
First Quarter
Nov 6
Full
Nov 14
Last Quarter
Nov 22
New

Today's Extremes

State Highs State Lows

Community

WunderPhotos

Upload Photos

1,764,544 photos uploaded!

Nearby

Air Quality

  Air Quality AQ Index Pollutant
Yesterday Good
PM2.5
Yesterday Good
OZONE
Current Good
PM2.5
Friday Good
PM2.5
Friday Good
OZONE

Snow Depth

Station Depth Elevation
No new snow has been reported.

Earthquake Activity

City Distance Mag. Time & Date
No recent earthquake activity has been reported nearby.
Minimum magnitude displayed is 2.5.

Coastal Water Temperatures

Place Temperature
No Stations Reporting

Nearby Weather Stations